Star Princess — ZCDD6 — position and weather

sailwx.info

Track history (hours):
 
Tides and Currents Weather Stations Pressure Air Temp Water Temp Dewpoint Dewpoint Depression Visibility Wind Speed Wind Dir Waves Ship Positions

Star Princess

Operator: Princess Cruises

Last reported at 2018-Sep-19 02:30 UTC. Time now 2018-Sep-19 02:53 UTC.
Position N 33°48' W 120°56'.

Length 289.6 m; beam 36 m; draft 8.4 m.

Type: Ship. MMSI: 310361000.

Date/timePositionNaut miles runAvg speedWind from/ knotsBaromVisibWave heightAir tempDewpointWater temp
2018-Sep-19 02:30N 33°48' W 120°56'818.4
2018-Sep-19 02:03N 33°56' W 121°01'119.6
2018-Sep-19 02:00N 33°57' W 121°01'1019.1
2018-Sep-19 01:29N 34°05' W 121°07'819.0
2018-Sep-19 01:03N 34°13' W 121°11'118.8
2018-Sep-19 01:00N 34°14' W 121°12'1019.1
2018-Sep-19 00:30N 34°22' W 121°17'919.4
2018-Sep-19 00:03N 34°30' W 121°22'119.0
2018-Sep-18 23:59N 34°31' W 121°22'919.2
2018-Sep-18 23:30N 34°39' W 121°27'919.0
2018-Sep-18 23:03N 34°47' W 121°32'119.4
2018-Sep-18 23:00N 34°48' W 121°33'1019.9
2018-Sep-18 22:30N 34°56' W 121°39'919.9
2018-Sep-18 22:03N 35°04' W 121°45'119.8
2018-Sep-18 22:00N 35°05' W 121°46'5458.8
2018-Sep-18 22:00N 35°00' W 121°42'1531.5 310 / 251013.310.8 23.015.615.0
2018-Sep-18 21:30N 35°13' W 121°52'1019.7
2018-Sep-18 21:00N 35°21' W 121°58'1019.8
2018-Sep-18 20:30N 35°30' W 122°05'920.0
2018-Sep-18 20:03N 35°38' W 122°11'120.5
2018-Sep-18 20:00N 35°38' W 122°11'1020.0
2018-Sep-18 19:30N 35°47' W 122°18'920.1
2018-Sep-18 19:03N 35°55' W 122°23'119.9
2018-Sep-18 19:00N 35°56' W 122°24'1020.3
2018-Sep-18 18:30N 36°04' W 122°31'920.7
2018-Sep-18 18:03N 36°12' W 122°37'121.1
2018-Sep-18 18:00N 36°13' W 122°38'1020.5
2018-Sep-18 17:30N 36°22' W 122°44'919.8
2018-Sep-18 17:03N 36°29' W 122°50'119.6
2018-Sep-18 17:00N 36°30' W 122°51'918.6
2018-Sep-18 16:30N 36°39' W 122°55'919.2
2018-Sep-18 16:03N 36°47' W 122°56'119.1
2018-Sep-18 16:00N 36°48' W 122°56'918.8
2018-Sep-18 15:30N 36°58' W 122°58'817.5
2018-Sep-18 15:03N 37°05' W 122°59'114.7
2018-Sep-18 15:00N 37°06' W 122°59'3 5.3
2018-Sep-18 14:30N 37°07' W 122°55'4 8.0
2018-Sep-18 14:01N 37°08' W 123°00'1019.3
2018-Sep-18 13:30N 37°09' W 123°12'919.6
2018-Sep-18 13:03N 37°13' W 123°23'119.1
2018-Sep-18 13:00N 37°13' W 123°23'1019.7
2018-Sep-18 12:30N 37°22' W 123°30'919.6
2018-Sep-18 12:02N 37°29' W 123°36'119.7
2018-Sep-18 12:00N 37°30' W 123°37'1019.8
2018-Sep-18 11:30N 37°38' W 123°43'919.7
2018-Sep-18 11:03N 37°46' W 123°49'119.4
2018-Sep-18 11:00N 37°47' W 123°50'1019.7
2018-Sep-18 10:30N 37°56' W 123°54'920.3
2018-Sep-18 10:03N 38°05' W 123°58'120.5
2018-Sep-18 10:00N 38°06' W 123°58'1020.0
2018-Sep-18 09:30N 38°15' W 124°02'919.3
2018-Sep-18 09:03N 38°23' W 124°06'119.3
2018-Sep-18 09:00N 38°24' W 124°07'1019.6
2018-Sep-18 08:30N 38°33' W 124°11'920.0
2018-Sep-18 08:03N 38°42' W 124°15'120.3
2018-Sep-18 08:00N 38°43' W 124°15'10120.2
2018-Sep-18 03:00N 40°18' W 125°00'7815.6 090 / 251016.610.8 15.012.316.0
2018-Sep-17 22:00N 41°36' W 125°06'9022.6 340 / 301016.610.8 20.514.616.0
2018-Sep-17 18:00N 43°06' W 125°18'7218.0 020 / 241018.910.8 18.512.217.0
2018-Sep-17 14:00N 44°18' W 125°24'6724.6 150 / 111019.010.8 15.011.317.0
2018-Sep-17 11:16N 45°25' W 125°32'819.8
2018-Sep-17 10:50N 45°33' W 125°33'719.8
2018-Sep-17 10:29N 45°40' W 125°33'919.7
2018-Sep-17 10:02N 45°49' W 125°34'219.6
2018-Sep-17 09:57N 45°51' W 125°34'1019.5
2018-Sep-17 09:28N 46°00' W 125°34'1219.5
2018-Sep-17 08:52N 46°12' W 125°35'719.5
2018-Sep-17 08:30N 46°19' W 125°36'919.6
2018-Sep-17 08:03N 46°28' W 125°36'119.9
2018-Sep-17 08:01N 46°29' W 125°36'1019.9
2018-Sep-17 07:30N 46°39' W 125°37'9120.1
2018-Sep-17 02:59N 48°09' W 125°44'918.2
2018-Sep-17 02:30N 48°18' W 125°40'919.3
2018-Sep-17 02:02N 48°22' W 125°29'119.9
2018-Sep-17 02:00N 48°23' W 125°27'1019.9
2018-Sep-17 01:30N 48°28' W 125°15'919.5
2018-Sep-17 01:03N 48°31' W 125°03'120.0
2018-Sep-17 01:01N 48°31' W 125°01'1019.9
2018-Sep-17 00:31N 48°31' W 124°46'919.9
2018-Sep-17 00:04N 48°28' W 124°34'120.1
2018-Sep-17 00:01N 48°27' W 124°33'1020.6
2018-Sep-16 23:30N 48°23' W 124°18'920.9
2018-Sep-16 23:03N 48°20' W 124°05'121.1
2018-Sep-16 23:01N 48°19' W 124°04'1120.5
2018-Sep-16 22:30N 48°17' W 123°48'919.8
2018-Sep-16 22:03N 48°16' W 123°35'219.6
2018-Sep-16 21:57N 48°15' W 123°32'816.2
2018-Sep-16 21:27N 48°22' W 123°25'3 0.4
2018-Sep-16 12:56N 48°25' W 123°24'0 0.9
2018-Sep-16 12:28N 48°25' W 123°24'2 5.6
2018-Sep-16 12:03N 48°23' W 123°22'110.3
2018-Sep-16 12:00N 48°23' W 123°21'510.3
2018-Sep-16 11:30N 48°24' W 123°13'4 9.4
2018-Sep-16 11:04N 48°28' W 123°12'110.4
2018-Sep-16 11:01N 48°29' W 123°12'510.5
2018-Sep-16 10:30N 48°34' W 123°14'510.2
2018-Sep-16 10:04N 48°39' W 123°15'111.3
2018-Sep-16 10:01N 48°39' W 123°15'4 8.7
2018-Sep-16 09:30N 48°43' W 123°13'510.5
2018-Sep-16 09:04N 48°45' W 123°06'110.7
2018-Sep-16 09:01N 48°45' W 123°06'5 9.4
2018-Sep-16 08:31N 48°49' W 123°01'510.3
2018-Sep-16 08:03N 48°52' W 123°06'0 9.9
2018-Sep-16 08:00N 48°53' W 123°06'510.3
2018-Sep-16 07:31N 48°56' W 123°12'510.2
2018-Sep-16 07:03N 48°59' W 123°17'1 9.9
2018-Sep-16 07:00N 48°60' W 123°18'510.3
2018-Sep-16 06:31N 49°03' W 123°24'510.3
2018-Sep-16 06:03N 49°07' W 123°27'110.3
2018-Sep-16 06:00N 49°07' W 123°28'510.4
2018-Sep-16 05:30N 49°12' W 123°32'510.9
2018-Sep-16 05:03N 49°15' W 123°38'111.3
2018-Sep-16 05:01N 49°15' W 123°38'510.6
2018-Sep-16 04:30N 49°18' W 123°46'510.4
2018-Sep-16 04:03N 49°19' W 123°52'010.4
2018-Sep-16 04:00N 49°19' W 123°53'3 6.3
2018-Sep-16 03:28N 49°23' W 123°55'410.2
2018-Sep-16 03:02N 49°20' W 123°49'010.8
2018-Sep-16 03:00N 49°20' W 123°48'510.2
2018-Sep-16 02:30N 49°18' W 123°42'510.2
2018-Sep-16 02:03N 49°16' W 123°35'010.7
2018-Sep-16 02:01N 49°15' W 123°35'5270.7
2018-Sep-16 02:00N 49°12' W 123°30'4 7.9 150 / 111009.5 5.4 14.511.715.0
2018-Sep-16 01:30N 49°15' W 123°27'410.0
2018-Sep-16 01:03N 49°17' W 123°21'110.4
2018-Sep-16 01:00N 49°18' W 123°20'510.0
2018-Sep-16 00:31N 49°19' W 123°13'4 9.5
2018-Sep-16 00:04N 49°18' W 123°07'0 7.2
2018-Sep-16 00:01N 49°18' W 123°06'0 0.8
2018-Sep-15 23:30N 49°17' W 123°06'0 0.0
2018-Sep-15 23:03N 49°17' W 123°06'0 0.0
2018-Sep-15 23:00N 49°17' W 123°06'0 0.0
2018-Sep-15 22:30N 49°17' W 123°06'0 0.0
2018-Sep-15 22:03N 49°17' W 123°06'0 0.0
2018-Sep-15 22:00N 49°17' W 123°06'0 0.0
2018-Sep-15 21:30N 49°17' W 123°06'0 0.0
2018-Sep-15 21:02N 49°17' W 123°06'0 0.0
2018-Sep-15 20:59N 49°17' W 123°06'0 0.0
2018-Sep-15 20:26N 49°17' W 123°06'0 0.0
2018-Sep-15 20:02N 49°17' W 123°06'0 0.0
2018-Sep-15 19:59N 49°17' W 123°06'0 0.0
2018-Sep-15 19:29N 49°17' W 123°06'0 0.0
2018-Sep-15 19:02N 49°17' W 123°06'0 0.0
2018-Sep-15 18:59N 49°17' W 123°06'0 0.0
2018-Sep-15 18:28N 49°17' W 123°06'0 0.0
2018-Sep-15 18:01N 49°17' W 123°06'0 0.0
2018-Sep-15 17:58N 49°17' W 123°06'0 0.0
2018-Sep-15 17:28N 49°17' W 123°06'0 0.0
2018-Sep-15 17:01N 49°17' W 123°06'0 0.0
2018-Sep-15 16:58N 49°17' W 123°06'0 0.0
2018-Sep-15 16:30N 49°17' W 123°06'0 0.0
2018-Sep-15 16:03N 49°17' W 123°06'0 0.0
2018-Sep-15 16:00N 49°17' W 123°06'0 0.0
2018-Sep-15 15:30N 49°17' W 123°06'0 0.0
2018-Sep-15 15:03N 49°17' W 123°06'0 0.0
2018-Sep-15 14:03N 49°17' W 123°06'0 0.0
2018-Sep-15 14:00N 49°17' W 123°06'0 0.5
2018-Sep-15 13:30N 49°18' W 123°06'3 6.7
2018-Sep-15 13:03N 49°19' W 123°10'010.1
2018-Sep-15 13:00N 49°19' W 123°11'611.3
2018-Sep-15 12:30N 49°19' W 123°20'511.4
2018-Sep-15 12:03N 49°19' W 123°28'112.1
2018-Sep-15 12:00N 49°19' W 123°29'611.3
2018-Sep-15 11:30N 49°19' W 123°38'511.9
2018-Sep-15 11:03N 49°19' W 123°46'111.2
2018-Sep-15 11:00N 49°19' W 123°46'611.5
2018-Sep-15 10:30N 49°21' W 123°55'511.5
2018-Sep-15 10:03N 49°22' W 124°02'111.1
2018-Sep-15 09:58N 49°23' W 124°04'511.4
2018-Sep-15 09:30N 49°24' W 124°12'511.2
2018-Sep-15 09:03N 49°25' W 124°19'111.2
2018-Sep-15 09:00N 49°26' W 124°20'611.5
2018-Sep-15 08:29N 49°29' W 124°28'511.3
2018-Sep-15 08:03N 49°32' W 124°33'111.0
2018-Sep-15 07:58N 49°33' W 124°34'611.4
2018-Sep-15 07:29N 49°37' W 124°40'511.4
2018-Sep-15 07:03N 49°41' W 124°45'011.2
2018-Sep-15 07:00N 49°41' W 124°45'611.4
2018-Sep-15 06:30N 49°46' W 124°51'511.5
2018-Sep-15 06:02N 49°49' W 124°57'011.2
2018-Sep-15 06:00N 49°50' W 124°57'611.3
2018-Sep-15 05:30N 49°54' W 125°04'511.4
2018-Sep-15 05:03N 49°57' W 125°09'112.1
2018-Sep-15 05:00N 49°58' W 125°10'611.5
2018-Sep-15 04:30N 50°03' W 125°14'613.1
2018-Sep-15 04:03N 50°07' W 125°20'112.7
2018-Sep-15 04:00N 50°07' W 125°21'612.8
2018-Sep-15 03:30N 50°14' W 125°23'613.2
2018-Sep-15 03:03N 50°20' W 125°25'114.2
2018-Sep-15 03:00N 50°20' W 125°26'7807.8
2018-Sep-15 03:00N 50°18' W 125°36'2511.2 080 / 221011.110.8 12.011.011.0
2018-Sep-15 00:48N 50°29' W 126°11'2313.6
2018-Sep-14 23:07N 50°36' W 126°45'716.4
2018-Sep-14 22:41N 50°41' W 126°53'317.0
2018-Sep-14 22:29N 50°42' W 126°58'716.7
2018-Sep-14 22:02N 50°45' W 127°09'115.8
2018-Sep-14 22:00N 50°45' W 127°10'917.2
2018-Sep-14 21:30N 50°49' W 127°22'817.5
2018-Sep-14 21:03N 50°52' W 127°34'116.8
2018-Sep-14 21:00N 50°52' W 127°35'817.1
2018-Sep-14 20:30N 50°58' W 127°45'510.8
2018-Sep-14 20:03N 51°01' W 127°51'115.3
2018-Sep-14 20:00N 51°01' W 127°52'714.8
2018-Sep-14 19:30N 51°05' W 128°02'613.5
2018-Sep-14 19:03N 51°08' W 128°11'113.1
2018-Sep-14 19:00N 51°09' W 128°11'613.0
2018-Sep-14 18:30N 51°12' W 128°20'613.5
2018-Sep-14 18:03N 51°15' W 128°29'113.8
2018-Sep-14 18:00N 51°16' W 128°30'713.9
2018-Sep-14 17:30N 51°19' W 128°39'614.0
2018-Sep-14 17:03N 51°22' W 128°48'114.0
2018-Sep-14 17:00N 51°23' W 128°49'713.8
2018-Sep-14 16:30N 51°28' W 128°55'613.6
2018-Sep-14 16:03N 51°33' W 129°01'114.0
2018-Sep-14 16:00N 51°34' W 129°02'714.1
2018-Sep-14 15:30N 51°39' W 129°08'614.4
2018-Sep-14 15:03N 51°45' W 129°15'119.0
2018-Sep-14 15:00N 51°45' W 129°16'918.5
2018-Sep-14 14:30N 51°53' W 129°24'918.1
2018-Sep-14 14:00N 52°00' W 129°33'918.1
2018-Sep-14 13:30N 52°08' W 129°42'818.7
2018-Sep-14 13:03N 52°15' W 129°48'118.6
2018-Sep-14 13:00N 52°16' W 129°49'918.1
2018-Sep-14 12:30N 52°24' W 129°56'817.8
2018-Sep-14 12:03N 52°31' W 130°03'117.8
2018-Sep-14 12:00N 52°31' W 130°03'4218.0
2018-Sep-14 09:41N 53°08' W 130°36'417.5
2018-Sep-14 09:29N 53°12' W 130°38'817.3
2018-Sep-14 09:03N 53°19' W 130°42'120.4
2018-Sep-14 09:00N 53°19' W 130°43'1020.4
2018-Sep-14 08:30N 53°29' W 130°48'920.1
2018-Sep-14 08:03N 53°38' W 130°52'119.5
2018-Sep-14 08:00N 53°39' W 130°53'1019.6
2018-Sep-14 07:30N 53°48' W 130°57'920.0
2018-Sep-14 07:03N 53°57' W 131°01'119.9
2018-Sep-14 07:00N 53°58' W 131°02'1019.9
2018-Sep-14 06:30N 54°07' W 131°06'919.8
2018-Sep-14 06:03N 54°16' W 131°10'119.0
2018-Sep-14 06:00N 54°17' W 131°10'1019.2
2018-Sep-14 05:30N 54°26' W 131°13'919.2
2018-Sep-14 05:03N 54°35' W 131°16'119.0
2018-Sep-14 05:00N 54°36' W 131°16'1120.2
2018-Sep-14 04:28N 54°46' W 131°10'820.3
2018-Sep-14 04:03N 54°55' W 131°08'120.5
2018-Sep-14 04:00N 54°55' W 131°08'111029.0
2018-Sep-14 04:00N 55°06' W 131°06'2 3.8 170 / 131014.010.8 14.0 2.816.0
2018-Sep-14 03:24N 55°07' W 131°09'  
2018-Sep-11 06:01N 58°09' W 135°03'112.0
2018-Sep-11 05:56N 58°09' W 135°05'611.7
2018-Sep-11 05:26N 58°09' W 135°16'411.6
2018-Sep-11 05:04N 58°11' W 135°23'112.0
2018-Sep-11 05:00N 58°12' W 135°24'611.7
2018-Sep-11 04:29N 58°15' W 135°34'512.0
2018-Sep-11 04:03N 58°17' W 135°43'112.0
2018-Sep-11 04:00N 58°17' W 135°44'612.0
2018-Sep-11 03:30N 58°19' W 135°55'614.3
2018-Sep-11 03:03N 58°25' W 135°60'111.3
2018-Sep-11 03:01N 58°26' W 136°00'10582.8
2018-Sep-11 03:00N 58°18' W 135°48'1734.8 010 / 121012.427.0 19.0 9.6 8.0
2018-Sep-11 02:30N 58°33' W 136°03'613.3
2018-Sep-11 02:03N 58°39' W 136°04'110.7
2018-Sep-11 02:00N 58°39' W 136°04'815.8
2018-Sep-11 01:30N 58°45' W 136°15'919.4
2018-Sep-11 01:02N 58°50' W 136°30'119.4
2018-Sep-11 00:59N 58°50' W 136°32'3 0.5
2018-Sep-10 19:15N 58°52' W 136°37'417.5
2018-Sep-10 19:00N 58°50' W 136°30'917.9
2018-Sep-10 18:30N 58°44' W 136°17'817.1
2018-Sep-10 18:03N 58°39' W 136°06'114.7
2018-Sep-10 18:01N 58°39' W 136°05'612.7
2018-Sep-10 17:30N 58°32' W 136°04'715.1
2018-Sep-10 17:03N 58°26' W 135°59'0 9.8
2018-Sep-10 17:00N 58°26' W 135°58'611.6
2018-Sep-10 16:30N 58°20' W 136°03'714.4
2018-Sep-10 16:00N 58°18' W 136°16'9510.6
2018-Sep-10 07:00N 58°54' W 139°06'4912.2 010 / 151007.010.8 15.0 9.216.0
2018-Sep-10 03:00N 59°36' W 139°54'73 7.3 270 / 121013.327.0 14.010.210.0
2018-Sep-09 17:00N 59°30' W 142°18'   300 / 51009.127.0 13.011.116.0
Track history (hours):
 
Tides and Currents Weather Stations Pressure Air Temp Water Temp Dewpoint Dewpoint Depression Visibility Wind Speed Wind Dir Waves Ship Positions

Star Princess

Operator: Princess Cruises

Last reported at 2018-Sep-19 02:30 UTC. Time now 2018-Sep-19 02:53 UTC.
Position N 33°48' W 120°56'.

Length 289.6 m; beam 36 m; draft 8.4 m.

Type: Ship. MMSI: 310361000.

Date/timePositionNaut miles runAvg speedWind from/ knotsBaromVisibWave heightAir tempDewpointWater temp
2018-Sep-19 02:30N 33°48' W 120°56'818.4
2018-Sep-19 02:03N 33°56' W 121°01'119.6
2018-Sep-19 02:00N 33°57' W 121°01'1019.1
2018-Sep-19 01:29N 34°05' W 121°07'819.0
2018-Sep-19 01:03N 34°13' W 121°11'118.8
2018-Sep-19 01:00N 34°14' W 121°12'1019.1
2018-Sep-19 00:30N 34°22' W 121°17'919.4
2018-Sep-19 00:03N 34°30' W 121°22'119.0
2018-Sep-18 23:59N 34°31' W 121°22'919.2
2018-Sep-18 23:30N 34°39' W 121°27'919.0
2018-Sep-18 23:03N 34°47' W 121°32'119.4
2018-Sep-18 23:00N 34°48' W 121°33'1019.9
2018-Sep-18 22:30N 34°56' W 121°39'919.9
2018-Sep-18 22:03N 35°04' W 121°45'119.8
2018-Sep-18 22:00N 35°05' W 121°46'5458.8
2018-Sep-18 22:00N 35°00' W 121°42'1531.5 310 / 251013.310.8 23.015.615.0
2018-Sep-18 21:30N 35°13' W 121°52'1019.7
2018-Sep-18 21:00N 35°21' W 121°58'1019.8
2018-Sep-18 20:30N 35°30' W 122°05'920.0
2018-Sep-18 20:03N 35°38' W 122°11'120.5
2018-Sep-18 20:00N 35°38' W 122°11'1020.0
2018-Sep-18 19:30N 35°47' W 122°18'920.1
2018-Sep-18 19:03N 35°55' W 122°23'119.9
2018-Sep-18 19:00N 35°56' W 122°24'1020.3
2018-Sep-18 18:30N 36°04' W 122°31'920.7
2018-Sep-18 18:03N 36°12' W 122°37'121.1
2018-Sep-18 18:00N 36°13' W 122°38'1020.5
2018-Sep-18 17:30N 36°22' W 122°44'919.8
2018-Sep-18 17:03N 36°29' W 122°50'119.6
2018-Sep-18 17:00N 36°30' W 122°51'918.6
2018-Sep-18 16:30N 36°39' W 122°55'919.2
2018-Sep-18 16:03N 36°47' W 122°56'119.1
2018-Sep-18 16:00N 36°48' W 122°56'918.8
2018-Sep-18 15:30N 36°58' W 122°58'817.5
2018-Sep-18 15:03N 37°05' W 122°59'114.7
2018-Sep-18 15:00N 37°06' W 122°59'3 5.3
2018-Sep-18 14:30N 37°07' W 122°55'4 8.0
2018-Sep-18 14:01N 37°08' W 123°00'1019.3
2018-Sep-18 13:30N 37°09' W 123°12'919.6
2018-Sep-18 13:03N 37°13' W 123°23'119.1
2018-Sep-18 13:00N 37°13' W 123°23'1019.7
2018-Sep-18 12:30N 37°22' W 123°30'919.6
2018-Sep-18 12:02N 37°29' W 123°36'119.7
2018-Sep-18 12:00N 37°30' W 123°37'1019.8
2018-Sep-18 11:30N 37°38' W 123°43'919.7
2018-Sep-18 11:03N 37°46' W 123°49'119.4
2018-Sep-18 11:00N 37°47' W 123°50'1019.7
2018-Sep-18 10:30N 37°56' W 123°54'920.3
2018-Sep-18 10:03N 38°05' W 123°58'120.5
2018-Sep-18 10:00N 38°06' W 123°58'1020.0
2018-Sep-18 09:30N 38°15' W 124°02'919.3
2018-Sep-18 09:03N 38°23' W 124°06'119.3
2018-Sep-18 09:00N 38°24' W 124°07'1019.6
2018-Sep-18 08:30N 38°33' W 124°11'920.0
2018-Sep-18 08:03N 38°42' W 124°15'120.3
2018-Sep-18 08:00N 38°43' W 124°15'10120.2
2018-Sep-18 03:00N 40°18' W 125°00'7815.6 090 / 251016.610.8 15.012.316.0
2018-Sep-17 22:00N 41°36' W 125°06'9022.6 340 / 301016.610.8 20.514.616.0
2018-Sep-17 18:00N 43°06' W 125°18'7218.0 020 / 241018.910.8 18.512.217.0
2018-Sep-17 14:00N 44°18' W 125°24'6724.6 150 / 111019.010.8 15.011.317.0
2018-Sep-17 11:16N 45°25' W 125°32'819.8
2018-Sep-17 10:50N 45°33' W 125°33'719.8
2018-Sep-17 10:29N 45°40' W 125°33'919.7
2018-Sep-17 10:02N 45°49' W 125°34'219.6
2018-Sep-17 09:57N 45°51' W 125°34'1019.5
2018-Sep-17 09:28N 46°00' W 125°34'1219.5
2018-Sep-17 08:52N 46°12' W 125°35'719.5
2018-Sep-17 08:30N 46°19' W 125°36'919.6
2018-Sep-17 08:03N 46°28' W 125°36'119.9
2018-Sep-17 08:01N 46°29' W 125°36'1019.9
2018-Sep-17 07:30N 46°39' W 125°37'9120.1
2018-Sep-17 02:59N 48°09' W 125°44'918.2
2018-Sep-17 02:30N 48°18' W 125°40'919.3
2018-Sep-17 02:02N 48°22' W 125°29'119.9
2018-Sep-17 02:00N 48°23' W 125°27'1019.9
2018-Sep-17 01:30N 48°28' W 125°15'919.5
2018-Sep-17 01:03N 48°31' W 125°03'120.0
2018-Sep-17 01:01N 48°31' W 125°01'1019.9
2018-Sep-17 00:31N 48°31' W 124°46'919.9
2018-Sep-17 00:04N 48°28' W 124°34'120.1
2018-Sep-17 00:01N 48°27' W 124°33'1020.6
2018-Sep-16 23:30N 48°23' W 124°18'920.9
2018-Sep-16 23:03N 48°20' W 124°05'121.1
2018-Sep-16 23:01N 48°19' W 124°04'1120.5
2018-Sep-16 22:30N 48°17' W 123°48'919.8
2018-Sep-16 22:03N 48°16' W 123°35'219.6
2018-Sep-16 21:57N 48°15' W 123°32'816.2
2018-Sep-16 21:27N 48°22' W 123°25'3 0.4
2018-Sep-16 12:56N 48°25' W 123°24'0 0.9
2018-Sep-16 12:28N 48°25' W 123°24'2 5.6
2018-Sep-16 12:03N 48°23' W 123°22'110.3
2018-Sep-16 12:00N 48°23' W 123°21'510.3
2018-Sep-16 11:30N 48°24' W 123°13'4 9.4
2018-Sep-16 11:04N 48°28' W 123°12'110.4
2018-Sep-16 11:01N 48°29' W 123°12'510.5
2018-Sep-16 10:30N 48°34' W 123°14'510.2
2018-Sep-16 10:04N 48°39' W 123°15'111.3
2018-Sep-16 10:01N 48°39' W 123°15'4 8.7
2018-Sep-16 09:30N 48°43' W 123°13'510.5
2018-Sep-16 09:04N 48°45' W 123°06'110.7
2018-Sep-16 09:01N 48°45' W 123°06'5 9.4
2018-Sep-16 08:31N 48°49' W 123°01'510.3
2018-Sep-16 08:03N 48°52' W 123°06'0 9.9
2018-Sep-16 08:00N 48°53' W 123°06'510.3
2018-Sep-16 07:31N 48°56' W 123°12'510.2
2018-Sep-16 07:03N 48°59' W 123°17'1 9.9
2018-Sep-16 07:00N 48°60' W 123°18'510.3
2018-Sep-16 06:31N 49°03' W 123°24'510.3
2018-Sep-16 06:03N 49°07' W 123°27'110.3
2018-Sep-16 06:00N 49°07' W 123°28'510.4
2018-Sep-16 05:30N 49°12' W 123°32'510.9
2018-Sep-16 05:03N 49°15' W 123°38'111.3
2018-Sep-16 05:01N 49°15' W 123°38'510.6
2018-Sep-16 04:30N 49°18' W 123°46'510.4
2018-Sep-16 04:03N 49°19' W 123°52'010.4
2018-Sep-16 04:00N 49°19' W 123°53'3 6.3
2018-Sep-16 03:28N 49°23' W 123°55'410.2
2018-Sep-16 03:02N 49°20' W 123°49'010.8
2018-Sep-16 03:00N 49°20' W 123°48'510.2
2018-Sep-16 02:30N 49°18' W 123°42'510.2
2018-Sep-16 02:03N 49°16' W 123°35'010.7
2018-Sep-16 02:01N 49°15' W 123°35'5270.7
2018-Sep-16 02:00N 49°12' W 123°30'4 7.9 150 / 111009.5 5.4 14.511.715.0
2018-Sep-16 01:30N 49°15' W 123°27'410.0
2018-Sep-16 01:03N 49°17' W 123°21'110.4
2018-Sep-16 01:00N 49°18' W 123°20'510.0
2018-Sep-16 00:31N 49°19' W 123°13'4 9.5
2018-Sep-16 00:04N 49°18' W 123°07'0 7.2
2018-Sep-16 00:01N 49°18' W 123°06'0 0.8
2018-Sep-15 23:30N 49°17' W 123°06'0 0.0
2018-Sep-15 23:03N 49°17' W 123°06'0 0.0
2018-Sep-15 23:00N 49°17' W 123°06'0 0.0
2018-Sep-15 22:30N 49°17' W 123°06'0 0.0
2018-Sep-15 22:03N 49°17' W 123°06'0 0.0
2018-Sep-15 22:00N 49°17' W 123°06'0 0.0
2018-Sep-15 21:30N 49°17' W 123°06'0 0.0
2018-Sep-15 21:02N 49°17' W 123°06'0 0.0
2018-Sep-15 20:59N 49°17' W 123°06'0 0.0
2018-Sep-15 20:26N 49°17' W 123°06'0 0.0
2018-Sep-15 20:02N 49°17' W 123°06'0 0.0
2018-Sep-15 19:59N 49°17' W 123°06'0 0.0
2018-Sep-15 19:29N 49°17' W 123°06'0 0.0
2018-Sep-15 19:02N 49°17' W 123°06'0 0.0
2018-Sep-15 18:59N 49°17' W 123°06'0 0.0
2018-Sep-15 18:28N 49°17' W 123°06'0 0.0
2018-Sep-15 18:01N 49°17' W 123°06'0 0.0
2018-Sep-15 17:58N 49°17' W 123°06'0 0.0
2018-Sep-15 17:28N 49°17' W 123°06'0 0.0
2018-Sep-15 17:01N 49°17' W 123°06'0 0.0
2018-Sep-15 16:58N 49°17' W 123°06'0 0.0
2018-Sep-15 16:30N 49°17' W 123°06'0 0.0
2018-Sep-15 16:03N 49°17' W 123°06'0 0.0
2018-Sep-15 16:00N 49°17' W 123°06'0 0.0
2018-Sep-15 15:30N 49°17' W 123°06'0 0.0
2018-Sep-15 15:03N 49°17' W 123°06'0 0.0
2018-Sep-15 14:03N 49°17' W 123°06'0 0.0
2018-Sep-15 14:00N 49°17' W 123°06'0 0.5
2018-Sep-15 13:30N 49°18' W 123°06'3 6.7
2018-Sep-15 13:03N 49°19' W 123°10'010.1
2018-Sep-15 13:00N 49°19' W 123°11'611.3
2018-Sep-15 12:30N 49°19' W 123°20'511.4
2018-Sep-15 12:03N 49°19' W 123°28'112.1
2018-Sep-15 12:00N 49°19' W 123°29'611.3
2018-Sep-15 11:30N 49°19' W 123°38'511.9
2018-Sep-15 11:03N 49°19' W 123°46'111.2
2018-Sep-15 11:00N 49°19' W 123°46'611.5
2018-Sep-15 10:30N 49°21' W 123°55'511.5
2018-Sep-15 10:03N 49°22' W 124°02'111.1
2018-Sep-15 09:58N 49°23' W 124°04'511.4
2018-Sep-15 09:30N 49°24' W 124°12'511.2
2018-Sep-15 09:03N 49°25' W 124°19'111.2
2018-Sep-15 09:00N 49°26' W 124°20'611.5
2018-Sep-15 08:29N 49°29' W 124°28'511.3
2018-Sep-15 08:03N 49°32' W 124°33'111.0
2018-Sep-15 07:58N 49°33' W 124°34'611.4
2018-Sep-15 07:29N 49°37' W 124°40'511.4
2018-Sep-15 07:03N 49°41' W 124°45'011.2
2018-Sep-15 07:00N 49°41' W 124°45'611.4
2018-Sep-15 06:30N 49°46' W 124°51'511.5
2018-Sep-15 06:02N 49°49' W 124°57'011.2
2018-Sep-15 06:00N 49°50' W 124°57'611.3
2018-Sep-15 05:30N 49°54' W 125°04'511.4
2018-Sep-15 05:03N 49°57' W 125°09'112.1
2018-Sep-15 05:00N 49°58' W 125°10'611.5
2018-Sep-15 04:30N 50°03' W 125°14'613.1
2018-Sep-15 04:03N 50°07' W 125°20'112.7
2018-Sep-15 04:00N 50°07' W 125°21'612.8
2018-Sep-15 03:30N 50°14' W 125°23'613.2
2018-Sep-15 03:03N 50°20' W 125°25'114.2
2018-Sep-15 03:00N 50°20' W 125°26'7807.8
2018-Sep-15 03:00N 50°18' W 125°36'2511.2 080 / 221011.110.8 12.011.011.0
2018-Sep-15 00:48N 50°29' W 126°11'2313.6
2018-Sep-14 23:07N 50°36' W 126°45'716.4
2018-Sep-14 22:41N 50°41' W 126°53'317.0
2018-Sep-14 22:29N 50°42' W 126°58'716.7
2018-Sep-14 22:02N 50°45' W 127°09'115.8
2018-Sep-14 22:00N 50°45' W 127°10'917.2
2018-Sep-14 21:30N 50°49' W 127°22'817.5
2018-Sep-14 21:03N 50°52' W 127°34'116.8
2018-Sep-14 21:00N 50°52' W 127°35'817.1
2018-Sep-14 20:30N 50°58' W 127°45'510.8
2018-Sep-14 20:03N 51°01' W 127°51'115.3
2018-Sep-14 20:00N 51°01' W 127°52'714.8
2018-Sep-14 19:30N 51°05' W 128°02'613.5
2018-Sep-14 19:03N 51°08' W 128°11'113.1
2018-Sep-14 19:00N 51°09' W 128°11'613.0
2018-Sep-14 18:30N 51°12' W 128°20'613.5
2018-Sep-14 18:03N 51°15' W 128°29'113.8
2018-Sep-14 18:00N 51°16' W 128°30'713.9
2018-Sep-14 17:30N 51°19' W 128°39'614.0
2018-Sep-14 17:03N 51°22' W 128°48'114.0
2018-Sep-14 17:00N 51°23' W 128°49'713.8
2018-Sep-14 16:30N 51°28' W 128°55'613.6
2018-Sep-14 16:03N 51°33' W 129°01'114.0
2018-Sep-14 16:00N 51°34' W 129°02'714.1
2018-Sep-14 15:30N 51°39' W 129°08'614.4
2018-Sep-14 15:03N 51°45' W 129°15'119.0
2018-Sep-14 15:00N 51°45' W 129°16'918.5
2018-Sep-14 14:30N 51°53' W 129°24'918.1
2018-Sep-14 14:00N 52°00' W 129°33'918.1
2018-Sep-14 13:30N 52°08' W 129°42'818.7
2018-Sep-14 13:03N 52°15' W 129°48'118.6
2018-Sep-14 13:00N 52°16' W 129°49'918.1
2018-Sep-14 12:30N 52°24' W 129°56'817.8
2018-Sep-14 12:03N 52°31' W 130°03'117.8
2018-Sep-14 12:00N 52°31' W 130°03'4218.0
2018-Sep-14 09:41N 53°08' W 130°36'417.5
2018-Sep-14 09:29N 53°12' W 130°38'817.3
2018-Sep-14 09:03N 53°19' W 130°42'120.4
2018-Sep-14 09:00N 53°19' W 130°43'1020.4
2018-Sep-14 08:30N 53°29' W 130°48'920.1
2018-Sep-14 08:03N 53°38' W 130°52'119.5
2018-Sep-14 08:00N 53°39' W 130°53'1019.6
2018-Sep-14 07:30N 53°48' W 130°57'920.0
2018-Sep-14 07:03N 53°57' W 131°01'119.9
2018-Sep-14 07:00N 53°58' W 131°02'1019.9
2018-Sep-14 06:30N 54°07' W 131°06'919.8
2018-Sep-14 06:03N 54°16' W 131°10'119.0
2018-Sep-14 06:00N 54°17' W 131°10'1019.2
2018-Sep-14 05:30N 54°26' W 131°13'919.2
2018-Sep-14 05:03N 54°35' W 131°16'119.0
2018-Sep-14 05:00N 54°36' W 131°16'1120.2
2018-Sep-14 04:28N 54°46' W 131°10'820.3
2018-Sep-14 04:03N 54°55' W 131°08'120.5
2018-Sep-14 04:00N 54°55' W 131°08'111029.0
2018-Sep-14 04:00N 55°06' W 131°06'2 3.8 170 / 131014.010.8 14.0 2.816.0
2018-Sep-14 03:24N 55°07' W 131°09'  
2018-Sep-11 06:01N 58°09' W 135°03'112.0
2018-Sep-11 05:56N 58°09' W 135°05'611.7
2018-Sep-11 05:26N 58°09' W 135°16'411.6
2018-Sep-11 05:04N 58°11' W 135°23'112.0
2018-Sep-11 05:00N 58°12' W 135°24'611.7
2018-Sep-11 04:29N 58°15' W 135°34'512.0
2018-Sep-11 04:03N 58°17' W 135°43'112.0
2018-Sep-11 04:00N 58°17' W 135°44'612.0
2018-Sep-11 03:30N 58°19' W 135°55'614.3
2018-Sep-11 03:03N 58°25' W 135°60'111.3
2018-Sep-11 03:01N 58°26' W 136°00'10582.8
2018-Sep-11 03:00N 58°18' W 135°48'1734.8 010 / 121012.427.0 19.0 9.6 8.0
2018-Sep-11 02:30N 58°33' W 136°03'613.3
2018-Sep-11 02:03N 58°39' W 136°04'110.7
2018-Sep-11 02:00N 58°39' W 136°04'815.8
2018-Sep-11 01:30N 58°45' W 136°15'919.4
2018-Sep-11 01:02N 58°50' W 136°30'119.4
2018-Sep-11 00:59N 58°50' W 136°32'3 0.5
2018-Sep-10 19:15N 58°52' W 136°37'417.5
2018-Sep-10 19:00N 58°50' W 136°30'917.9
2018-Sep-10 18:30N 58°44' W 136°17'817.1
2018-Sep-10 18:03N 58°39' W 136°06'114.7
2018-Sep-10 18:01N 58°39' W 136°05'612.7
2018-Sep-10 17:30N 58°32' W 136°04'715.1
2018-Sep-10 17:03N 58°26' W 135°59'0 9.8
2018-Sep-10 17:00N 58°26' W 135°58'611.6
2018-Sep-10 16:30N 58°20' W 136°03'714.4
2018-Sep-10 16:00N 58°18' W 136°16'9510.6
2018-Sep-10 07:00N 58°54' W 139°06'4912.2 010 / 151007.010.8 15.0 9.216.0
2018-Sep-10 03:00N 59°36' W 139°54'73 7.3 270 / 121013.327.0 14.010.210.0
2018-Sep-09 17:00N 59°30' W 142°18'   300 / 51009.127.0 13.011.116.0

Dump ship's entire track history